Time;durP1;ratioP1;P1;durP2;ratioP2;P2;SDS_P1;SDS_P2;PMS_P1;PMS_P2;Temp;Humidity;BMP_temperature;BMP_pressure;BME280_temperature;BME280_humidity;BME280_pressure;Samples;Min_cycle;Max_cycle;Signal;HPM_P1;HPM_P2
2021/08/05 00:01:47;;;;;;;0.70;0.50;;;;;;;35.29;25.94;97721.97;5058422;28;20029;-90
2021/08/05 00:04:13;;;;;;;1.05;0.60;;;;;;;35.49;25.74;97718.06;5061969;28;20040;-89
2021/08/05 00:06:39;;;;;;;0.77;0.63;;;;;;;35.12;26.46;97718.34;5054291;28;20044;-90
2021/08/05 00:09:05;;;;;;;0.50;0.50;;;;;;;35.05;26.16;97722.50;5056491;28;20033;-89
2021/08/05 00:11:32;;;;;;;0.50;0.47;;;;;;;35.22;26.04;97722.50;5058656;28;20031;-90
2021/08/05 00:13:58;;;;;;;0.68;0.68;;;;;;;35.29;25.82;97721.97;5060051;28;20040;-89
2021/08/05 00:16:24;;;;;;;0.73;0.60;;;;;;;35.37;26.15;97712.38;5061033;28;20041;-90
2021/08/05 00:18:50;;;;;;;0.50;0.50;;;;;;;35.42;25.88;97725.09;5059677;28;20086;-90
2021/08/05 00:21:18;;;;;;;0.95;0.52;;;;;;;35.48;25.55;97728.72;5058123;28;20044;-90
2021/08/05 00:23:44;;;;;;;0.60;0.60;;;;;;;35.70;25.75;97723.00;5054897;28;20036;-89
2021/08/05 00:26:11;;;;;;;0.80;0.68;;;;;;;35.56;26.25;97718.34;5057626;28;20149;-89
2021/08/05 00:28:38;;;;;;;0.52;0.52;;;;;;;34.98;27.08;97717.28;5055391;28;20115;-90
2021/08/05 00:31:05;;;;;;;0.60;0.60;;;;;;;34.77;27.09;97715.19;5059295;28;20045;-91
2021/08/05 00:33:31;;;;;;;4.20;0.65;;;;;;;33.86;28.92;97715.34;5061887;28;20104;-90
2021/08/05 00:35:59;;;;;;;0.63;0.63;;;;;;;33.78;29.18;97707.78;5059716;28;20064;-90
2021/08/05 00:38:25;;;;;;;2.33;0.70;;;;;;;33.92;28.88;97710.44;5055102;28;20028;-90
2021/08/05 00:40:52;;;;;;;0.60;0.60;;;;;;;34.24;28.37;97707.50;5062050;28;20488;-90
2021/08/05 00:43:19;;;;;;;1.35;0.82;;;;;;;34.09;28.84;97707.72;5062192;28;20044;-89
2021/08/05 00:45:46;;;;;;;1.85;0.70;;;;;;;33.87;29.04;97696.94;5062862;28;20045;-90
2021/08/05 00:48:12;;;;;;;1.08;0.80;;;;;;;33.73;29.53;97689.38;5058697;28;20033;-90
2021/08/05 00:50:38;;;;;;;1.27;0.93;;;;;;;33.47;29.62;97685.81;5058072;28;20040;-90
2021/08/05 00:53:05;;;;;;;1.20;1.10;;;;;;;32.80;30.46;97675.19;5058814;28;20136;-90
2021/08/05 00:55:32;;;;;;;2.17;1.40;;;;;;;32.18;31.95;97679.44;5058871;28;20040;-90
2021/08/05 00:57:58;;;;;;;1.52;1.40;;;;;;;32.14;32.14;97666.75;5054911;28;20047;-91
2021/08/05 01:00:25;;;;;;;1.63;1.30;;;;;;;32.66;31.55;97660.59;5060809;28;20415;-91
2021/08/05 01:03:10;;;;;;;4.45;2.45;;;;;;;32.30;32.17;97663.31;5057319;28;20025;-91
2021/08/05 01:05:46;;;;;;;1.92;1.83;;;;;;;32.54;31.60;97660.97;5060581;28;20075;-90
2021/08/05 01:08:18;;;;;;;4.65;2.58;;;;;;;32.25;32.12;97661.19;5057554;28;20025;-91
2021/08/05 01:10:55;;;;;;;3.08;2.88;;;;;;;31.32;33.34;97650.91;5057648;28;20441;-90
2021/08/05 01:13:32;;;;;;;2.97;2.42;;;;;;;32.09;32.77;97651.97;5061706;28;20051;-91
2021/08/05 01:16:01;;;;;;;3.78;3.47;;;;;;;31.48;33.82;97652.44;5058174;28;20068;-91
2021/08/05 01:18:30;;;;;;;3.80;3.10;;;;;;;31.99;32.19;97644.09;5055543;28;20033;-91
2021/08/05 01:21:04;;;;;;;3.40;2.83;;;;;;;32.51;31.87;97634.34;5066061;28;20025;-91
2021/08/05 01:23:35;;;;;;;3.60;3.30;;;;;;;31.85;32.38;97637.22;5064214;28;20032;-91
2021/08/05 01:26:10;;;;;;;3.47;3.17;;;;;;;32.25;32.22;97639.25;5054357;28;20043;-91
2021/08/05 01:28:39;;;;;;;3.50;3.20;;;;;;;32.27;32.19;97622.47;5056336;28;20082;-92
2021/08/05 01:31:06;;;;;;;4.95;3.75;;;;;;;31.27;33.85;97624.00;5054363;28;20032;-90
2021/08/05 01:33:35;;;;;;;2.97;2.60;;;;;;;32.66;31.71;97620.00;5054131;28;20095;-92
2021/08/05 01:36:04;;;;;;;5.55;2.33;;;;;;;32.71;32.23;97620.06;5053404;28;20392;-91
2021/08/05 01:38:35;;;;;;;4.07;2.58;;;;;;;32.74;31.76;97615.44;5071005;28;20028;-91
2021/08/05 01:41:11;;;;;;;3.08;2.75;;;;;;;33.19;31.23;97614.47;5052348;28;20094;-91
2021/08/05 01:43:39;;;;;;;3.33;2.70;;;;;;;33.42;30.59;97621.88;5059453;28;20067;-91
2021/08/05 01:46:06;;;;;;;3.70;3.13;;;;;;;32.87;31.23;97627.16;5060395;28;20064;-90
2021/08/05 01:48:34;;;;;;;3.60;2.60;;;;;;;33.48;30.82;97626.81;5059174;28;20029;-91
2021/08/05 01:51:00;;;;;;;2.15;1.77;;;;;;;34.08;29.28;97626.34;5058153;28;20035;-90
2021/08/05 01:53:27;;;;;;;3.28;2.97;;;;;;;33.90;29.90;97616.16;5056690;28;20095;-91
2021/08/05 01:55:53;;;;;;;4.00;2.75;;;;;;;33.70;30.07;97624.88;5057553;28;20382;-91
2021/08/05 01:58:19;;;;;;;3.75;2.85;;;;;;;32.71;32.16;97630.66;5066091;28;20025;-91
2021/08/05 02:00:46;;;;;;;2.60;2.40;;;;;;;32.98;31.85;97621.56;5065331;28;20029;-91
2021/08/05 02:03:13;;;;;;;2.55;2.35;;;;;;;33.23;31.46;97617.09;5059878;28;20033;-90
2021/08/05 02:05:54;;;;;;;3.15;2.75;;;;;;;33.18;31.05;97617.84;5056245;28;20101;-91
2021/08/05 02:08:25;;;;;;;3.80;3.42;;;;;;;32.97;31.60;97620.00;5062828;28;20167;-92
2021/08/05 02:10:56;;;;;;;4.68;2.90;;;;;;;33.24;31.63;97615.81;5063867;28;20031;-92
2021/08/05 02:13:27;;;;;;;5.18;2.63;;;;;;;33.39;31.08;97616.44;5058905;28;20074;-91
2021/08/05 02:15:59;;;;;;;3.78;3.47;;;;;;;32.38;31.94;97610.41;5059105;28;20033;-92
2021/08/05 02:18:28;;;;;;;4.13;3.83;;;;;;;31.07;34.92;97594.81;5066523;28;20033;-90
2021/08/05 02:20:55;;;;;;;4.28;3.88;;;;;;;29.72;37.26;97592.13;5059523;28;20040;-91
2021/08/05 02:23:22;;;;;;;5.00;4.43;;;;;;;29.13;39.12;97589.06;5065995;28;20036;-92
2021/08/05 02:25:51;;;;;;;4.90;4.50;;;;;;;29.29;38.69;97591.50;5057040;28;20036;-93
2021/08/05 02:28:18;;;;;;;7.15;4.32;;;;;;;30.08;38.18;97592.63;5060555;28;20052;-92
2021/08/05 02:30:45;;;;;;;5.63;5.13;;;;;;;31.05;35.38;97591.72;5061581;28;21037;-92
2021/08/05 02:33:13;;;;;;;3.53;3.22;;;;;;;32.32;33.44;97589.69;5065671;28;20039;-93
2021/08/05 02:35:42;;;;;;;5.60;3.88;;;;;;;32.91;31.80;97592.81;5061479;28;20115;-92
2021/08/05 02:38:09;;;;;;;5.63;3.25;;;;;;;32.73;32.33;97589.06;5063704;28;20508;-93
2021/08/05 02:40:36;;;;;;;4.20;3.47;;;;;;;32.96;31.85;97586.34;5057114;28;20107;-92
2021/08/05 02:43:05;;;;;;;4.15;2.85;;;;;;;33.10;31.97;97591.94;5058436;28;20111;-92
2021/08/05 02:45:32;;;;;;;4.82;3.35;;;;;;;33.38;31.25;97597.78;5068017;28;20111;-90
2021/08/05 02:48:01;;;;;;;5.30;4.80;;;;;;;32.64;32.26;97589.25;5068566;28;20116;-91
2021/08/05 02:50:28;;;;;;;4.28;3.35;;;;;;;33.06;32.12;97597.09;5063824;28;20033;-92
2021/08/05 02:52:56;;;;;;;5.15;3.83;;;;;;;33.25;31.79;97595.41;5063889;28;20040;-92
2021/08/05 02:55:23;;;;;;;3.05;2.75;;;;;;;33.35;31.35;97599.56;5064241;28;20395;-92
2021/08/05 02:57:51;;;;;;;4.85;3.65;;;;;;;33.01;31.80;97592.13;5061122;28;20041;-92
2021/08/05 03:00:18;;;;;;;3.90;3.60;;;;;;;32.72;32.35;97590.31;5066338;28;20392;-92
2021/08/05 03:02:45;;;;;;;4.40;4.00;;;;;;;32.35;32.64;97591.53;5060124;28;20031;-91
2021/08/05 03:05:13;;;;;;;3.22;2.92;;;;;;;32.95;32.18;97594.13;5062315;28;20108;-92
2021/08/05 03:07:39;;;;;;;4.18;3.58;;;;;;;33.70;31.05;97599.25;5063740;28;20036;-90
2021/08/05 03:10:07;;;;;;;3.40;3.10;;;;;;;34.03;30.18;97607.94;5060929;28;20415;-90
2021/08/05 03:12:33;;;;;;;3.72;3.42;;;;;;;33.69;31.13;97609.09;5063669;28;20051;-91
2021/08/05 03:15:00;;;;;;;3.40;3.10;;;;;;;33.90;30.48;97616.16;5069002;28;20038;-89
2021/08/05 03:17:26;;;;;;;4.22;3.63;;;;;;;33.53;31.17;97615.50;5058788;28;20041;-87
2021/08/05 03:19:52;;;;;;;3.88;3.45;;;;;;;33.20;31.63;97607.53;5068345;28;20064;-87
2021/08/05 03:22:18;;;;;;;4.85;2.90;;;;;;;33.47;31.29;97594.72;5067158;28;20078;-86
2021/08/05 03:24:44;;;;;;;5.00;4.45;;;;;;;30.42;36.33;97573.41;5071322;28;20024;-85
2021/08/05 03:27:11;;;;;;;4.05;3.75;;;;;;;28.20;40.93;97548.81;5065188;28;20086;-85
2021/08/05 03:29:38;;;;;;;3.72;3.42;;;;;;;27.38;43.08;97540.41;5064788;28;20116;-85
2021/08/05 03:32:04;;;;;;;3.05;2.85;;;;;;;28.08;42.39;97533.63;5062458;28;20424;-86
2021/08/05 03:34:31;;;;;;;2.55;2.35;;;;;;;30.30;38.04;97549.75;5061760;28;20525;-85
2021/08/05 03:36:57;;;;;;;2.72;2.45;;;;;;;30.92;35.80;97554.41;5069407;28;20111;-86
2021/08/05 03:39:23;;;;;;;1.83;1.30;;;;;;;32.54;33.02;97553.75;5067919;28;20037;-86
2021/08/05 03:41:50;;;;;;;1.48;1.38;;;;;;;33.42;31.38;97564.94;5059367;28;20028;-85
2021/08/05 03:44:16;;;;;;;1.30;1.20;;;;;;;34.04;30.58;97574.53;5066266;28;20040;-86
2021/08/05 03:46:42;;;;;;;1.85;1.52;;;;;;;32.99;32.10;97560.53;5060445;28;20037;-86
2021/08/05 03:49:09;;;;;;;1.25;1.00;;;;;;;32.97;32.14;97563.13;5065714;28;20061;-86
2021/08/05 03:51:35;;;;;;;1.38;1.27;;;;;;;32.75;32.76;97560.09;5058669;28;20060;-86
2021/08/05 03:54:01;;;;;;;1.48;1.38;;;;;;;32.30;33.32;97558.94;5069076;28;20028;-87
2021/08/05 03:56:28;;;;;;;1.30;1.20;;;;;;;32.46;33.11;97555.47;5054143;28;20216;-86
2021/08/05 03:58:54;;;;;;;1.00;0.98;;;;;;;32.85;32.70;97555.78;5065165;28;20025;-86
2021/08/05 04:01:20;;;;;;;0.90;0.90;;;;;;;33.41;31.22;97557.69;5056949;28;20444;-86
2021/08/05 04:03:47;;;;;;;0.98;0.95;;;;;;;33.36;31.78;97552.75;5066176;28;20050;-86
2021/08/05 04:06:13;;;;;;;1.10;1.00;;;;;;;33.27;31.52;97555.03;5056885;28;20044;-87
2021/08/05 04:08:39;;;;;;;0.70;0.70;;;;;;;32.31;32.93;97557.66;5061924;28;20029;-87
2021/08/05 04:11:05;;;;;;;1.00;0.90;;;;;;;31.42;34.54;97556.66;5055647;28;20032;-86
2021/08/05 04:13:32;;;;;;;0.77;0.70;;;;;;;30.07;36.61;97545.78;5060119;28;20032;-85
2021/08/05 04:15:58;;;;;;;0.90;0.63;;;;;;;30.00;37.30;97551.81;5066240;28;20051;-86
2021/08/05 04:18:24;;;;;;;0.70;0.60;;;;;;;31.01;35.94;97557.91;5057558;28;20031;-86
2021/08/05 04:20:50;;;;;;;1.15;0.82;;;;;;;30.47;36.19;97544.41;5060499;28;20056;-86
2021/08/05 04:23:16;;;;;;;0.80;0.80;;;;;;;28.82;39.42;97540.59;5055518;28;20029;-85
2021/08/05 04:25:42;;;;;;;0.95;0.95;;;;;;;28.42;40.88;97543.72;5058503;28;20032;-86
2021/08/05 04:28:08;;;;;;;0.88;0.88;;;;;;;28.55;40.37;97544.28;5058327;28;20108;-86
2021/08/05 04:30:34;;;;;;;0.90;0.90;;;;;;;28.30;40.60;97536.25;5061203;28;20539;-86
2021/08/05 04:33:00;;;;;;;0.98;0.88;;;;;;;27.80;42.17;97537.72;5059426;28;20435;-86
2021/08/05 04:35:26;;;;;;;1.20;1.10;;;;;;;27.27;43.26;97534.44;5063327;28;20090;-86
2021/08/05 04:37:55;;;;;;;0.98;0.98;;;;;;;27.03;44.41;97532.66;5059558;28;20033;-85
2021/08/05 04:40:23;;;;;;;1.30;1.20;;;;;;;28.34;40.84;97524.75;5055100;28;20074;-85
2021/08/05 04:42:49;;;;;;;0.90;0.90;;;;;;;27.90;41.98;97522.34;5066880;28;20112;-85
2021/08/05 04:45:16;;;;;;;0.93;0.93;;;;;;;27.44;42.61;97520.84;5061173;28;20040;-86
2021/08/05 04:47:54;;;;;;;1.15;1.10;;;;;;;27.11;43.89;97519.84;5064142;28;21535;-86
2021/08/05 04:50:21;;;;;;;1.38;1.27;;;;;;;27.61;42.24;97513.63;5066346;28;20104;-85
2021/08/05 04:52:47;;;;;;;1.25;1.15;;;;;;;27.96;41.92;97511.19;5065622;28;20063;-86
2021/08/05 04:55:13;;;;;;;1.52;1.40;;;;;;;26.94;43.94;97513.72;5062306;28;20033;-87
2021/08/05 04:57:47;;;;;;;1.80;1.50;;;;;;;27.64;42.30;97504.22;5067593;28;20028;-87
2021/08/05 05:00:14;;;;;;;2.80;1.40;;;;;;;27.68;42.10;97507.66;5060775;28;20032;-87
2021/08/05 05:02:40;;;;;;;2.05;1.67;;;;;;;27.27;43.32;97503.44;5055881;28;20083;-86
2021/08/05 05:05:06;;;;;;;2.35;1.55;;;;;;;26.90;44.28;97506.69;5058089;28;20025;-87
2021/08/05 05:07:33;;;;;;;2.03;1.42;;;;;;;28.31;40.90;97497.50;5058256;28;20036;-87
2021/08/05 05:09:59;;;;;;;2.50;2.30;;;;;;;27.11;43.40;97494.50;5055190;28;20392;-88
2021/08/05 05:12:25;;;;;;;2.08;1.88;;;;;;;27.04;43.58;97486.34;5056113;28;20036;-86
2021/08/05 05:14:51;;;;;;;4.47;2.90;;;;;;;26.60;44.50;97472.50;5061229;28;20496;-87
2021/08/05 05:17:17;;;;;;;4.38;2.58;;;;;;;25.95;46.78;97475.47;5058228;28;20036;-84
2021/08/05 05:19:43;;;;;;;2.90;2.70;;;;;;;25.89;47.34;97473.72;5068501;28;20400;-86
2021/08/05 05:22:09;;;;;;;2.90;2.38;;;;;;;26.64;45.68;97477.97;5070655;28;20027;-87
2021/08/05 05:24:35;;;;;;;2.58;1.70;;;;;;;27.23;44.26;97477.44;5053274;28;20041;-87
2021/08/05 05:27:02;;;;;;;2.63;2.05;;;;;;;27.91;42.13;97475.94;5067247;28;20062;-87
2021/08/05 05:29:28;;;;;;;2.58;2.38;;;;;;;27.40;42.80;97469.44;5070231;28;20075;-87
2021/08/05 05:31:54;;;;;;;1.70;1.60;;;;;;;27.58;42.58;97472.28;5060228;28;20033;-88
2021/08/05 05:34:21;;;;;;;3.10;1.77;;;;;;;28.33;41.49;97489.31;5066152;28;20113;-88
2021/08/05 05:36:47;;;;;;;2.25;1.95;;;;;;;29.48;38.70;97487.50;5071582;28;20067;-89
2021/08/05 05:39:13;;;;;;;1.92;1.83;;;;;;;29.67;38.19;97486.06;5063532;28;20021;-88
2021/08/05 05:41:39;;;;;;;2.15;2.00;;;;;;;27.95;41.09;97499.16;5067421;28;20081;-87
2021/08/05 05:44:05;;;;;;;1.77;1.67;;;;;;;26.96;43.69;97487.91;5069549;28;20040;-87
2021/08/05 05:46:32;;;;;;;2.70;2.50;;;;;;;26.23;45.88;97496.13;5068679;28;20048;-87
2021/08/05 05:48:58;;;;;;;1.77;1.67;;;;;;;26.79;44.69;97493.06;5060280;28;20397;-87
2021/08/05 05:51:24;;;;;;;2.15;2.00;;;;;;;27.54;43.15;97482.91;5058911;28;20044;-87
2021/08/05 05:53:50;;;;;;;2.85;2.58;;;;;;;26.61;44.88;97485.31;5059056;28;20028;-87
2021/08/05 05:56:16;;;;;;;2.10;1.90;;;;;;;26.50;45.70;97482.16;5074424;28;20075;-87
2021/08/05 05:58:42;;;;;;;4.40;1.90;;;;;;;26.98;44.71;97471.31;5065117;28;20052;-87
2021/08/05 06:01:08;;;;;;;2.80;2.13;;;;;;;27.79;42.87;97462.03;5071213;28;20036;-86
2021/08/05 06:03:34;;;;;;;2.55;2.08;;;;;;;28.26;42.40;97447.31;5067524;28;20028;-88
2021/08/05 06:06:00;;;;;;;2.53;2.33;;;;;;;27.53;43.16;97444.69;5076864;28;20029;-87
2021/08/05 06:08:26;;;;;;;3.28;2.20;;;;;;;27.74;42.98;97451.38;5058940;28;20115;-87
2021/08/05 06:10:52;;;;;;;3.00;2.53;;;;;;;27.67;43.15;97441.22;5058055;28;20122;-87
2021/08/05 06:13:18;;;;;;;2.25;2.10;;;;;;;28.94;41.40;97434.22;5071732;28;20377;-87
2021/08/05 06:15:44;;;;;;;2.28;2.17;;;;;;;28.47;40.82;97424.44;5073539;28;20481;-88
2021/08/05 06:18:10;;;;;;;4.22;3.75;;;;;;;26.97;44.24;97422.63;5066385;28;20485;-86
2021/08/05 06:20:37;;;;;;;3.28;3.00;;;;;;;26.16;47.33;97425.28;5072364;28;20032;-87
2021/08/05 06:23:03;;;;;;;3.00;2.80;;;;;;;26.42;46.73;97423.81;5075864;28;20039;-87
2021/08/05 06:25:29;;;;;;;4.18;3.88;;;;;;;26.28;46.60;97421.56;5069148;28;20029;-87
2021/08/05 06:27:55;;;;;;;3.58;3.28;;;;;;;25.95;48.18;97424.84;5066196;28;20025;-88
2021/08/05 06:30:21;;;;;;;4.65;4.25;;;;;;;26.72;45.79;97417.28;5066662;28;20021;-88
2021/08/05 06:32:50;;;;;;;4.03;3.30;;;;;;;26.57;46.71;97416.31;5055290;28;20029;-87
2021/08/05 06:35:17;;;;;;;3.17;2.88;;;;;;;26.97;45.22;97419.81;5073711;28;20434;-88
2021/08/05 06:37:43;;;;;;;3.70;3.40;;;;;;;27.53;43.79;97415.72;5074008;28;20029;-88
2021/08/05 06:40:09;;;;;;;3.40;3.10;;;;;;;27.48;43.75;97417.13;5074888;28;20028;-88
2021/08/05 06:42:36;;;;;;;3.80;3.50;;;;;;;28.75;41.12;97425.09;5065850;28;20052;-88
2021/08/05 06:45:04;;;;;;;4.25;3.30;;;;;;;29.90;38.58;97430.66;5069659;28;20500;-88
2021/08/05 06:47:30;;;;;;;3.53;3.17;;;;;;;29.78;38.57;97438.19;5058842;28;20044;-88
2021/08/05 06:49:57;;;;;;;3.45;3.13;;;;;;;29.63;38.75;97437.38;5056426;28;20036;-88
2021/08/05 06:52:23;;;;;;;2.83;2.63;;;;;;;30.99;36.41;97446.25;5056672;28;20115;-88
2021/08/05 06:54:49;;;;;;;1.98;1.80;;;;;;;31.70;35.57;97443.44;5071420;28;20040;-89
2021/08/05 06:57:16;;;;;;;2.22;2.10;;;;;;;32.26;33.72;97452.47;5054432;28;20039;-89
2021/08/05 06:59:42;;;;;;;2.70;2.10;;;;;;;32.50;32.93;97450.09;5054705;28;20113;-88
2021/08/05 07:02:08;;;;;;;2.40;2.20;;;;;;;32.30;33.28;97462.31;5068710;28;20240;-88
2021/08/05 07:04:34;;;;;;;2.95;2.72;;;;;;;31.26;34.77;97468.47;5066010;28;20112;-88
2021/08/05 07:07:00;;;;;;;2.03;1.92;;;;;;;30.03;37.43;97462.28;5061019;28;20041;-88
2021/08/05 07:09:26;;;;;;;3.10;2.13;;;;;;;31.09;35.78;97458.97;5074176;28;20032;-87
2021/08/05 07:11:52;;;;;;;2.33;2.13;;;;;;;30.30;36.75;97459.13;5071843;28;20040;-88
2021/08/05 07:14:18;;;;;;;2.28;2.08;;;;;;;30.75;36.50;97455.69;5060987;28;20037;-88
2021/08/05 07:16:44;;;;;;;2.60;2.38;;;;;;;30.87;36.18;97453.00;5069229;28;22683;-89
2021/08/05 07:19:10;;;;;;;3.35;3.05;;;;;;;30.25;36.76;97444.84;5067455;28;20090;-88
2021/08/05 07:21:36;;;;;;;2.13;1.92;;;;;;;30.16;37.56;97439.31;5070006;28;20054;-88
2021/08/05 07:24:03;;;;;;;4.95;3.17;;;;;;;27.73;42.22;97442.13;5073503;28;20088;-87
2021/08/05 07:26:29;;;;;;;2.92;2.72;;;;;;;27.82;42.44;97433.66;5060454;28;20029;-87
2021/08/05 07:28:55;;;;;;;4.45;3.60;;;;;;;26.83;44.86;97436.56;5071416;28;20060;-87
2021/08/05 07:31:21;;;;;;;4.28;3.88;;;;;;;26.18;47.70;97440.47;5062119;28;20024;-88
2021/08/05 07:33:51;;;;;;;3.30;3.00;;;;;;;27.08;45.11;97433.44;5061410;28;20032;-87
2021/08/05 07:36:18;;;;;;;3.80;3.50;;;;;;;26.31;46.93;97432.69;5057562;28;20140;-88
2021/08/05 07:38:44;;;;;;;5.15;4.47;;;;;;;26.46;47.07;97438.50;5053544;28;20040;-87
2021/08/05 07:41:10;;;;;;;4.03;3.70;;;;;;;27.64;43.98;97435.72;5053510;28;20029;-88
2021/08/05 07:43:36;;;;;;;4.68;4.28;;;;;;;27.11;44.92;97436.09;5058033;28;20068;-89
2021/08/05 07:46:02;;;;;;;4.68;4.10;;;;;;;27.07;45.07;97434.69;5020019;28;1173002;-88
2021/08/05 07:48:29;;;;;;;5.07;4.53;;;;;;;26.11;47.24;97432.31;5060589;28;20029;-88
2021/08/05 07:50:55;;;;;;;5.25;4.78;;;;;;;25.66;48.92;97421.59;5064414;28;20024;-88
2021/08/05 07:53:21;;;;;;;4.57;4.18;;;;;;;26.00;48.44;97429.88;5064906;28;20024;-88
2021/08/05 07:55:47;;;;;;;5.65;4.95;;;;;;;26.92;45.55;97434.53;5063024;28;20041;-89
2021/08/05 07:58:13;;;;;;;3.95;3.63;;;;;;;27.67;43.67;97429.94;5061626;28;20032;-89
2021/08/05 08:00:39;;;;;;;5.68;3.83;;;;;;;27.48;44.53;97433.25;5060951;28;20728;-89
2021/08/05 08:03:06;;;;;;;5.47;4.72;;;;;;;26.97;45.25;97433.13;5062904;28;20035;-88
2021/08/05 08:05:33;;;;;;;4.47;4.07;;;;;;;28.49;41.86;97438.88;5059305;28;20029;-88
2021/08/05 08:08:00;;;;;;;3.78;3.42;;;;;;;29.38;39.70;97441.53;5065364;28;20515;-88
2021/08/05 08:10:26;;;;;;;4.88;4.38;;;;;;;28.80;40.22;97430.06;5061915;28;20044;-89
2021/08/05 08:12:54;;;;;;;6.25;4.93;;;;;;;27.50;42.92;97434.34;5068368;28;20038;-89
2021/08/05 08:15:25;;;;;;;4.32;3.75;;;;;;;27.11;44.51;97432.50;5068818;28;20037;-88
2021/08/05 08:17:52;;;;;;;6.32;4.85;;;;;;;26.09;47.09;97431.97;5065121;28;20040;-88
2021/08/05 08:20:19;;;;;;;4.43;4.03;;;;;;;26.57;46.44;97428.38;5062237;28;20020;-87
2021/08/05 08:22:45;;;;;;;4.28;3.88;;;;;;;26.53;46.10;97418.50;5071341;28;20028;-86
2021/08/05 08:25:11;;;;;;;4.55;3.90;;;;;;;26.68;46.16;97413.81;5061630;28;20029;-88
2021/08/05 08:27:40;;;;;;;5.18;3.58;;;;;;;27.76;43.77;97421.44;5063840;28;20031;-91
2021/08/05 08:30:08;;;;;;;3.25;2.95;;;;;;;29.34;39.67;97421.16;5063056;28;20070;-90
2021/08/05 08:32:34;;;;;;;2.63;2.17;;;;;;;30.62;37.52;97415.56;5057326;28;20082;-88
2021/08/05 08:35:00;;;;;;;2.78;2.58;;;;;;;28.75;40.71;97410.97;5060319;28;20055;-88
2021/08/05 08:37:26;;;;;;;2.90;2.50;;;;;;;28.55;41.22;97416.41;5057891;28;20033;-89
2021/08/05 08:39:52;;;;;;;2.50;2.30;;;;;;;29.17;40.33;97422.09;5063611;28;20522;-88
2021/08/05 08:42:18;;;;;;;2.42;2.22;;;;;;;29.54;39.57;97422.56;5057431;28;20098;-89
2021/08/05 08:44:45;;;;;;;2.20;2.10;;;;;;;29.36;39.75;97418.63;5063406;28;20074;-88
2021/08/05 08:47:12;;;;;;;2.13;1.92;;;;;;;29.35;40.09;97407.81;5060867;28;20053;-88
2021/08/05 08:49:42;;;;;;;2.50;2.30;;;;;;;28.46;41.54;97399.50;5063642;28;20132;-88
2021/08/05 08:52:11;;;;;;;2.35;2.15;;;;;;;28.53;42.69;97407.63;5053887;28;20492;-88
2021/08/05 08:54:43;;;;;;;2.75;2.13;;;;;;;28.45;42.95;97409.25;5054024;28;20029;-89
2021/08/05 08:57:12;;;;;;;1.83;1.73;;;;;;;28.17;43.51;97397.31;5055053;28;20037;-87
2021/08/05 08:59:45;;;;;;;2.63;2.08;;;;;;;28.08;43.04;97399.41;5076242;28;20036;-92
2021/08/05 09:02:13;;;;;;;1.58;1.48;;;;;;;28.43;42.58;97387.13;5059598;28;20029;-89
2021/08/05 09:04:39;;;;;;;1.80;1.70;;;;;;;28.47;42.67;97378.50;5068035;28;20538;-90
2021/08/05 09:07:06;;;;;;;2.70;1.70;;;;;;;27.79;43.84;97377.41;5054064;28;20150;-91
2021/08/05 09:09:32;;;;;;;1.58;1.48;;;;;;;28.43;44.00;97370.19;5057362;28;20049;-94
2021/08/05 09:11:58;;;;;;;2.20;2.00;;;;;;;27.88;43.89;97380.97;5059917;28;20460;-90
2021/08/05 09:14:51;;;;;;;1.65;1.55;;;;;;;26.73;46.06;97380.19;5055792;28;20166;-93
2021/08/05 09:17:26;;;;;;;1.88;1.45;;;;;;;27.37;45.35;97381.00;5071543;28;20036;-90
2021/08/05 09:19:55;;;;;;;1.77;1.50;;;;;;;26.97;46.04;97382.41;5071889;28;20133;-90
2021/08/05 09:22:39;;;;;;;1.90;1.75;;;;;;;26.90;46.25;97380.69;5060043;28;20435;-90
2021/08/05 09:25:30;;;;;;;1.77;1.67;;;;;;;27.11;45.27;97378.94;5060848;28;20033;-94
2021/08/05 09:28:01;;;;;;;;;;;;;;;26.77;45.67;97382.09;5055212;28;20029;-90
2021/08/05 09:30:34;;;;;;;1.67;1.58;;;;;;;27.84;43.77;97380.34;5055370;28;20288;-94
2021/08/05 09:33:11;;;;;;;1.90;1.60;;;;;;;28.25;42.57;97375.16;5064411;28;20576;-93
2021/08/05 09:35:39;;;;;;;1.63;1.30;;;;;;;27.04;45.42;97368.00;5065783;28;20037;-89
2021/08/05 09:38:20;;;;;;;2.60;2.20;;;;;;;27.42;45.08;97366.22;5062390;28;20079;-96
2021/08/05 09:40:51;;;;;;;1.95;1.80;;;;;;;27.33;45.19;97359.78;5071227;28;20028;-91
2021/08/05 09:43:27;;;;;;;1.95;1.80;;;;;;;27.28;45.67;97344.31;5060650;28;20078;-94
2021/08/05 09:45:53;;;;;;;1.90;1.67;;;;;;;27.40;44.63;97345.41;5069600;28;20569;-95
2021/08/05 09:48:32;;;;;;;2.00;1.80;;;;;;;28.22;43.81;97354.31;5063521;28;20033;-92
2021/08/05 09:51:16;;;;;;;1.70;1.60;;;;;;;27.95;42.97;97358.06;5062930;28;20513;-91
2021/08/05 09:54:00;;;;;;;1.50;1.40;;;;;;;27.86;43.32;97358.09;5067240;28;20629;-89
2021/08/05 09:56:31;;;;;;;1.77;1.63;;;;;;;28.25;42.21;97341.28;5071265;28;20025;-89
2021/08/05 09:59:05;;;;;;;1.77;1.67;;;;;;;27.92;42.94;97335.63;5066205;28;20481;-88
2021/08/05 10:01:31;;;;;;;2.72;2.15;;;;;;;27.03;45.72;97324.16;5051728;28;20021;-90
2021/08/05 10:03:58;;;;;;;4.28;2.28;;;;;;;26.90;45.78;97315.91;5051634;28;20595;-89
2021/08/05 10:06:24;;;;;;;1.40;1.30;;;;;;;27.38;44.58;97314.88;5051840;28;20029;-90
2021/08/05 10:08:50;;;;;;;3.03;2.10;;;;;;;27.27;45.12;97308.16;5065601;28;20043;-91
2021/08/05 10:11:16;;;;;;;2.40;2.20;;;;;;;27.16;45.18;97305.84;5072715;28;20039;-94
2021/08/05 10:13:42;;;;;;;3.10;2.15;;;;;;;26.95;46.06;97306.81;5068341;28;20064;-91
2021/08/05 10:16:13;;;;;;;3.05;2.72;;;;;;;27.29;44.67;97312.06;5062908;28;20036;-91
2021/08/05 10:18:41;;;;;;;2.13;1.92;;;;;;;27.02;45.72;97300.06;5054420;28;20025;-93
2021/08/05 10:21:10;;;;;;;2.88;2.30;;;;;;;26.96;46.01;97307.56;5063856;28;20060;-90
2021/08/05 10:23:40;;;;;;;2.97;2.70;;;;;;;27.12;45.26;97288.28;5071578;28;20040;-91
2021/08/05 10:26:08;;;;;;;3.00;2.67;;;;;;;27.33;44.97;97292.91;5068023;28;20029;-91
2021/08/05 10:28:34;;;;;;;2.00;1.80;;;;;;;28.71;42.19;97297.34;5072164;28;20085;-91
2021/08/05 10:31:04;;;;;;;3.40;2.42;;;;;;;28.67;41.53;97299.56;5071446;28;20436;-92
2021/08/05 10:33:32;;;;;;;2.30;1.75;;;;;;;30.54;37.96;97294.66;5072619;28;20526;-91
2021/08/05 10:35:59;;;;;;;4.60;2.55;;;;;;;31.11;36.31;97291.97;5071505;28;20538;-93
2021/08/05 10:38:25;;;;;;;3.17;2.88;;;;;;;28.62;41.37;97297.41;5061383;28;20450;-95
2021/08/05 10:40:52;;;;;;;3.78;3.38;;;;;;;29.37;40.13;97297.78;5059919;28;20432;-92
2021/08/05 10:43:19;;;;;;;5.63;4.05;;;;;;;29.18;39.97;97293.59;5071197;28;20041;-92
2021/08/05 10:45:46;;;;;;;5.13;3.92;;;;;;;28.47;42.40;97288.88;5075731;28;20527;-92
2021/08/05 10:48:13;;;;;;;4.05;3.65;;;;;;;29.83;39.91;97281.84;5074992;28;20484;-91
2021/08/05 10:50:42;;;;;;;4.78;3.80;;;;;;;30.03;38.87;97279.06;5076000;28;20036;-92
2021/08/05 10:53:31;;;;;;;3.67;3.38;;;;;;;29.20;40.50;97274.09;5076326;28;20062;-94
2021/08/05 10:56:33;;;;;;;4.32;3.78;;;;;;;28.91;41.42;97272.03;5074681;28;20081;-91
2021/08/05 10:59:10;;;;;;;5.00;4.40;;;;;;;28.59;41.83;97265.25;5014177;28;20026;-91
2021/08/05 11:01:47;;;;;;;5.35;4.57;;;;;;;28.91;41.27;97257.91;5068186;28;20044;-91
2021/08/05 11:04:32;;;;;;;5.82;4.88;;;;;;;28.58;41.87;97255.22;5075791;28;20020;-93
2021/08/05 11:07:20;;;;;;;6.13;5.13;;;;;;;28.45;42.31;97256.75;5074199;28;20032;-91
2021/08/05 11:09:46;;;;;;;8.70;6.57;;;;;;;27.46;44.64;97252.50;5074538;28;20044;-91
2021/08/05 11:12:36;;;;;;;8.55;6.18;;;;;;;28.45;42.38;97243.41;5075403;28;20029;-91
2021/08/05 11:15:02;;;;;;;9.98;6.45;;;;;;;28.32;43.19;97245.72;5064175;28;20048;-91
2021/08/05 11:17:28;;;;;;;10.32;7.18;;;;;;;26.73;46.79;97252.66;5074153;28;20488;-94
2021/08/05 11:20:13;;;;;;;7.75;6.82;;;;;;;27.59;44.69;97236.91;5075535;28;20040;-92
2021/08/05 11:22:40;;;;;;;9.75;6.97;;;;;;;27.53;44.69;97226.78;5075941;28;20028;-95
2021/08/05 11:25:07;;;;;;;9.27;7.35;;;;;;;28.30;43.38;97234.13;5063288;28;20044;-95
2021/08/05 11:27:33;;;;;;;7.35;6.40;;;;;;;28.27;43.23;97232.25;5065483;28;20025;-91
2021/08/05 11:29:59;;;;;;;7.40;6.07;;;;;;;28.44;42.46;97232.59;5075420;28;20028;-92
2021/08/05 11:32:25;;;;;;;11.43;8.43;;;;;;;27.55;44.33;97229.91;5075342;28;20025;-91
2021/08/05 11:34:59;;;;;;;7.13;6.25;;;;;;;27.66;44.53;97224.50;5073275;28;20044;-93
2021/08/05 11:37:26;;;;;;;8.82;6.97;;;;;;;27.76;44.07;97226.81;5064152;28;20162;-93
2021/08/05 11:39:58;;;;;;;10.57;7.45;;;;;;;26.80;46.14;97212.94;5074997;28;20032;-91